sensor_id;sensor_type;location;lat;lon;timestamp;P1;durP1;ratioP1;P2;durP2;ratioP2
80565;SDS011;69915;54.862;10.730;2023-05-23T00:02:17;4.05;;;1.58;;
80565;SDS011;69915;54.862;10.730;2023-05-23T00:04:42;4.15;;;1.50;;
80565;SDS011;69915;54.862;10.730;2023-05-23T00:07:08;3.15;;;1.35;;
80565;SDS011;69915;54.862;10.730;2023-05-23T00:09:34;5.15;;;1.65;;
80565;SDS011;69915;54.862;10.730;2023-05-23T00:12:00;5.00;;;1.63;;
80565;SDS011;69915;54.862;10.730;2023-05-23T00:14:26;5.57;;;1.90;;
80565;SDS011;69915;54.862;10.730;2023-05-23T00:16:51;3.90;;;1.65;;
80565;SDS011;69915;54.862;10.730;2023-05-23T00:19:17;7.07;;;1.75;;
80565;SDS011;69915;54.862;10.730;2023-05-23T00:21:42;4.25;;;1.45;;
80565;SDS011;69915;54.862;10.730;2023-05-23T00:24:14;4.20;;;2.00;;
80565;SDS011;69915;54.862;10.730;2023-05-23T00:26:43;4.55;;;1.50;;
80565;SDS011;69915;54.862;10.730;2023-05-23T00:29:10;4.45;;;1.88;;
80565;SDS011;69915;54.862;10.730;2023-05-23T00:31:43;6.05;;;1.83;;
80565;SDS011;69915;54.862;10.730;2023-05-23T00:34:13;4.50;;;1.80;;
80565;SDS011;69915;54.862;10.730;2023-05-23T00:36:42;3.55;;;1.52;;
80565;SDS011;69915;54.862;10.730;2023-05-23T00:39:08;5.95;;;1.83;;
80565;SDS011;69915;54.862;10.730;2023-05-23T00:41:42;3.42;;;1.50;;
80565;SDS011;69915;54.862;10.730;2023-05-23T00:44:08;5.80;;;1.80;;
80565;SDS011;69915;54.862;10.730;2023-05-23T00:46:34;4.43;;;2.00;;
80565;SDS011;69915;54.862;10.730;2023-05-23T00:49:00;3.50;;;1.70;;
80565;SDS011;69915;54.862;10.730;2023-05-23T00:51:27;3.80;;;1.67;;
80565;SDS011;69915;54.862;10.730;2023-05-23T00:53:53;7.20;;;2.00;;
80565;SDS011;69915;54.862;10.730;2023-05-23T00:56:19;4.63;;;1.92;;
80565;SDS011;69915;54.862;10.730;2023-05-23T00:58:45;4.88;;;2.00;;
80565;SDS011;69915;54.862;10.730;2023-05-23T01:01:11;6.05;;;2.53;;
80565;SDS011;69915;54.862;10.730;2023-05-23T01:03:39;5.82;;;2.28;;
80565;SDS011;69915;54.862;10.730;2023-05-23T01:06:04;3.95;;;1.75;;
80565;SDS011;69915;54.862;10.730;2023-05-23T01:08:30;4.05;;;1.92;;
80565;SDS011;69915;54.862;10.730;2023-05-23T01:10:57;4.97;;;1.92;;
80565;SDS011;69915;54.862;10.730;2023-05-23T01:13:30;6.72;;;2.45;;
80565;SDS011;69915;54.862;10.730;2023-05-23T01:18:37;7.15;;;2.30;;
80565;SDS011;69915;54.862;10.730;2023-05-23T01:27:12;4.55;;;1.90;;
80565;SDS011;69915;54.862;10.730;2023-05-23T01:29:53;4.50;;;2.42;;
80565;SDS011;69915;54.862;10.730;2023-05-23T01:32:22;4.45;;;2.13;;
80565;SDS011;69915;54.862;10.730;2023-05-23T01:34:51;4.28;;;2.10;;
80565;SDS011;69915;54.862;10.730;2023-05-23T01:37:17;4.82;;;1.92;;
80565;SDS011;69915;54.862;10.730;2023-05-23T01:39:43;4.90;;;2.10;;
80565;SDS011;69915;54.862;10.730;2023-05-23T01:42:09;5.10;;;2.20;;
80565;SDS011;69915;54.862;10.730;2023-05-23T01:44:35;4.00;;;1.98;;
80565;SDS011;69915;54.862;10.730;2023-05-23T01:47:02;3.88;;;1.80;;
80565;SDS011;69915;54.862;10.730;2023-05-23T01:49:29;7.18;;;2.22;;
80565;SDS011;69915;54.862;10.730;2023-05-23T01:51:55;3.75;;;1.75;;
80565;SDS011;69915;54.862;10.730;2023-05-23T01:54:22;4.65;;;1.92;;
80565;SDS011;69915;54.862;10.730;2023-05-23T01:56:48;4.80;;;2.47;;
80565;SDS011;69915;54.862;10.730;2023-05-23T01:59:14;4.30;;;2.17;;
80565;SDS011;69915;54.862;10.730;2023-05-23T02:01:40;3.83;;;2.13;;
80565;SDS011;69915;54.862;10.730;2023-05-23T02:04:06;4.15;;;2.13;;
80565;SDS011;69915;54.862;10.730;2023-05-23T02:06:31;5.68;;;2.10;;
80565;SDS011;69915;54.862;10.730;2023-05-23T02:08:57;4.65;;;2.28;;
80565;SDS011;69915;54.862;10.730;2023-05-23T02:11:22;4.43;;;1.83;;
80565;SDS011;69915;54.862;10.730;2023-05-23T02:13:48;4.78;;;2.80;;
80565;SDS011;69915;54.862;10.730;2023-05-23T02:16:13;5.95;;;2.78;;
80565;SDS011;69915;54.862;10.730;2023-05-23T02:18:39;6.25;;;2.20;;
80565;SDS011;69915;54.862;10.730;2023-05-23T02:21:04;8.35;;;2.88;;
80565;SDS011;69915;54.862;10.730;2023-05-23T02:23:30;6.72;;;2.53;;
80565;SDS011;69915;54.862;10.730;2023-05-23T02:25:56;5.00;;;2.75;;
80565;SDS011;69915;54.862;10.730;2023-05-23T02:28:21;3.63;;;1.88;;
80565;SDS011;69915;54.862;10.730;2023-05-23T02:30:46;3.83;;;2.33;;
80565;SDS011;69915;54.862;10.730;2023-05-23T02:33:12;6.60;;;3.00;;
80565;SDS011;69915;54.862;10.730;2023-05-23T02:35:38;4.90;;;2.25;;
80565;SDS011;69915;54.862;10.730;2023-05-23T02:38:04;4.85;;;2.67;;
80565;SDS011;69915;54.862;10.730;2023-05-23T02:40:29;5.47;;;2.63;;
80565;SDS011;69915;54.862;10.730;2023-05-23T02:42:55;5.35;;;3.13;;
80565;SDS011;69915;54.862;10.730;2023-05-23T02:45:21;5.55;;;2.78;;
80565;SDS011;69915;54.862;10.730;2023-05-23T02:47:47;8.48;;;3.67;;
80565;SDS011;69915;54.862;10.730;2023-05-23T02:50:13;6.30;;;3.03;;
80565;SDS011;69915;54.862;10.730;2023-05-23T02:52:38;7.80;;;3.55;;
80565;SDS011;69915;54.862;10.730;2023-05-23T02:55:06;5.85;;;3.20;;
80565;SDS011;69915;54.862;10.730;2023-05-23T02:57:32;7.78;;;3.47;;
80565;SDS011;69915;54.862;10.730;2023-05-23T02:59:57;6.75;;;2.88;;
80565;SDS011;69915;54.862;10.730;2023-05-23T03:02:23;7.28;;;3.20;;
80565;SDS011;69915;54.862;10.730;2023-05-23T03:04:48;4.78;;;3.38;;
80565;SDS011;69915;54.862;10.730;2023-05-23T03:07:14;9.85;;;3.42;;
80565;SDS011;69915;54.862;10.730;2023-05-23T03:09:40;6.97;;;3.17;;
80565;SDS011;69915;54.862;10.730;2023-05-23T03:12:06;7.80;;;3.20;;
80565;SDS011;69915;54.862;10.730;2023-05-23T03:14:31;8.57;;;3.72;;
80565;SDS011;69915;54.862;10.730;2023-05-23T03:16:57;5.03;;;3.03;;
80565;SDS011;69915;54.862;10.730;2023-05-23T03:19:22;8.75;;;3.75;;
80565;SDS011;69915;54.862;10.730;2023-05-23T03:21:48;9.48;;;3.92;;
80565;SDS011;69915;54.862;10.730;2023-05-23T03:24:15;5.93;;;3.63;;
80565;SDS011;69915;54.862;10.730;2023-05-23T03:26:40;4.60;;;2.95;;
80565;SDS011;69915;54.862;10.730;2023-05-23T03:29:06;6.95;;;2.92;;
80565;SDS011;69915;54.862;10.730;2023-05-23T03:31:31;9.95;;;3.90;;
80565;SDS011;69915;54.862;10.730;2023-05-23T03:33:57;5.40;;;3.42;;
80565;SDS011;69915;54.862;10.730;2023-05-23T03:36:22;8.00;;;3.30;;
80565;SDS011;69915;54.862;10.730;2023-05-23T03:38:50;5.85;;;3.10;;
80565;SDS011;69915;54.862;10.730;2023-05-23T03:41:17;6.75;;;3.22;;
80565;SDS011;69915;54.862;10.730;2023-05-23T03:43:42;6.30;;;3.00;;
80565;SDS011;69915;54.862;10.730;2023-05-23T03:46:08;5.57;;;3.03;;
80565;SDS011;69915;54.862;10.730;2023-05-23T03:48:33;4.68;;;2.95;;
80565;SDS011;69915;54.862;10.730;2023-05-23T03:50:59;5.63;;;2.60;;
80565;SDS011;69915;54.862;10.730;2023-05-23T03:53:24;8.88;;;3.70;;
80565;SDS011;69915;54.862;10.730;2023-05-23T03:55:50;7.53;;;2.70;;
80565;SDS011;69915;54.862;10.730;2023-05-23T03:58:17;6.68;;;3.35;;
80565;SDS011;69915;54.862;10.730;2023-05-23T04:00:43;6.95;;;3.33;;
80565;SDS011;69915;54.862;10.730;2023-05-23T04:03:09;4.97;;;3.10;;
80565;SDS011;69915;54.862;10.730;2023-05-23T04:05:35;6.72;;;3.15;;
80565;SDS011;69915;54.862;10.730;2023-05-23T04:08:00;7.40;;;3.13;;
80565;SDS011;69915;54.862;10.730;2023-05-23T04:10:26;6.95;;;3.03;;
80565;SDS011;69915;54.862;10.730;2023-05-23T04:12:52;7.40;;;3.10;;
80565;SDS011;69915;54.862;10.730;2023-05-23T04:15:17;8.35;;;3.85;;
80565;SDS011;69915;54.862;10.730;2023-05-23T04:17:45;5.55;;;2.88;;
80565;SDS011;69915;54.862;10.730;2023-05-23T04:20:10;5.30;;;2.97;;
80565;SDS011;69915;54.862;10.730;2023-05-23T04:22:36;5.85;;;2.30;;
80565;SDS011;69915;54.862;10.730;2023-05-23T04:25:02;7.95;;;3.70;;
80565;SDS011;69915;54.862;10.730;2023-05-23T04:27:28;5.68;;;2.40;;
80565;SDS011;69915;54.862;10.730;2023-05-23T04:29:53;5.20;;;2.97;;
80565;SDS011;69915;54.862;10.730;2023-05-23T04:32:20;7.32;;;3.20;;
80565;SDS011;69915;54.862;10.730;2023-05-23T04:34:47;7.38;;;3.28;;
80565;SDS011;69915;54.862;10.730;2023-05-23T04:37:12;5.05;;;2.97;;
80565;SDS011;69915;54.862;10.730;2023-05-23T04:39:38;9.18;;;3.53;;
80565;SDS011;69915;54.862;10.730;2023-05-23T04:42:04;9.73;;;4.07;;
80565;SDS011;69915;54.862;10.730;2023-05-23T04:44:31;6.25;;;3.70;;
80565;SDS011;69915;54.862;10.730;2023-05-23T04:46:57;4.20;;;2.47;;
80565;SDS011;69915;54.862;10.730;2023-05-23T04:49:23;4.53;;;2.67;;
80565;SDS011;69915;54.862;10.730;2023-05-23T04:51:49;6.03;;;2.97;;
80565;SDS011;69915;54.862;10.730;2023-05-23T04:54:15;6.40;;;2.88;;
80565;SDS011;69915;54.862;10.730;2023-05-23T04:56:40;5.55;;;2.78;;
80565;SDS011;69915;54.862;10.730;2023-05-23T04:59:06;8.23;;;2.63;;
80565;SDS011;69915;54.862;10.730;2023-05-23T05:01:33;6.72;;;2.85;;
80565;SDS011;69915;54.862;10.730;2023-05-23T05:03:58;6.78;;;2.88;;
80565;SDS011;69915;54.862;10.730;2023-05-23T05:06:24;5.63;;;2.55;;
80565;SDS011;69915;54.862;10.730;2023-05-23T05:08:51;4.97;;;2.63;;
80565;SDS011;69915;54.862;10.730;2023-05-23T05:11:17;7.80;;;3.50;;
80565;SDS011;69915;54.862;10.730;2023-05-23T05:13:42;6.45;;;2.97;;
80565;SDS011;69915;54.862;10.730;2023-05-23T05:16:08;6.30;;;3.22;;
80565;SDS011;69915;54.862;10.730;2023-05-23T05:18:34;6.82;;;3.15;;
80565;SDS011;69915;54.862;10.730;2023-05-23T05:21:00;6.88;;;3.05;;
80565;SDS011;69915;54.862;10.730;2023-05-23T05:23:25;7.80;;;2.70;;
80565;SDS011;69915;54.862;10.730;2023-05-23T05:25:55;5.45;;;2.70;;
80565;SDS011;69915;54.862;10.730;2023-05-23T05:28:21;5.10;;;2.67;;
80565;SDS011;69915;54.862;10.730;2023-05-23T05:30:47;4.50;;;2.58;;
80565;SDS011;69915;54.862;10.730;2023-05-23T05:33:21;5.57;;;2.90;;
80565;SDS011;69915;54.862;10.730;2023-05-23T05:35:52;4.60;;;2.67;;
80565;SDS011;69915;54.862;10.730;2023-05-23T05:38:18;4.85;;;2.53;;
80565;SDS011;69915;54.862;10.730;2023-05-23T05:40:44;7.50;;;4.18;;
80565;SDS011;69915;54.862;10.730;2023-05-23T05:43:09;9.98;;;4.50;;
80565;SDS011;69915;54.862;10.730;2023-05-23T05:45:35;10.88;;;4.00;;
80565;SDS011;69915;54.862;10.730;2023-05-23T05:48:01;9.35;;;3.50;;
80565;SDS011;69915;54.862;10.730;2023-05-23T05:50:27;5.50;;;2.88;;
80565;SDS011;69915;54.862;10.730;2023-05-23T05:52:53;5.40;;;2.90;;
80565;SDS011;69915;54.862;10.730;2023-05-23T05:55:18;6.22;;;3.13;;
80565;SDS011;69915;54.862;10.730;2023-05-23T05:57:44;5.07;;;2.92;;
80565;SDS011;69915;54.862;10.730;2023-05-23T06:00:11;5.00;;;2.42;;
80565;SDS011;69915;54.862;10.730;2023-05-23T06:02:43;10.32;;;2.83;;
80565;SDS011;69915;54.862;10.730;2023-05-23T06:05:15;5.70;;;2.83;;
80565;SDS011;69915;54.862;10.730;2023-05-23T06:07:46;5.47;;;2.53;;
80565;SDS011;69915;54.862;10.730;2023-05-23T06:10:13;4.95;;;2.45;;
80565;SDS011;69915;54.862;10.730;2023-05-23T06:12:39;6.13;;;3.17;;
80565;SDS011;69915;54.862;10.730;2023-05-23T06:15:05;8.57;;;2.88;;
80565;SDS011;69915;54.862;10.730;2023-05-23T06:17:32;6.35;;;2.92;;
80565;SDS011;69915;54.862;10.730;2023-05-23T06:19:57;4.97;;;2.67;;
80565;SDS011;69915;54.862;10.730;2023-05-23T06:22:23;5.30;;;2.40;;
80565;SDS011;69915;54.862;10.730;2023-05-23T06:24:49;5.47;;;2.42;;
80565;SDS011;69915;54.862;10.730;2023-05-23T06:27:14;7.25;;;2.78;;
80565;SDS011;69915;54.862;10.730;2023-05-23T06:29:40;5.07;;;2.65;;
80565;SDS011;69915;54.862;10.730;2023-05-23T06:32:05;5.57;;;2.60;;
80565;SDS011;69915;54.862;10.730;2023-05-23T06:34:30;4.10;;;2.40;;
80565;SDS011;69915;54.862;10.730;2023-05-23T06:36:56;5.78;;;2.65;;
80565;SDS011;69915;54.862;10.730;2023-05-23T06:39:21;7.78;;;2.90;;
80565;SDS011;69915;54.862;10.730;2023-05-23T06:41:47;6.10;;;2.35;;
80565;SDS011;69915;54.862;10.730;2023-05-23T06:44:12;5.18;;;2.97;;
80565;SDS011;69915;54.862;10.730;2023-05-23T06:46:39;5.40;;;2.75;;
80565;SDS011;69915;54.862;10.730;2023-05-23T06:49:05;7.18;;;3.03;;
80565;SDS011;69915;54.862;10.730;2023-05-23T06:51:30;5.93;;;2.78;;
80565;SDS011;69915;54.862;10.730;2023-05-23T06:53:56;6.80;;;3.33;;
80565;SDS011;69915;54.862;10.730;2023-05-23T06:56:22;5.13;;;2.42;;
80565;SDS011;69915;54.862;10.730;2023-05-23T06:58:48;7.55;;;3.20;;
80565;SDS011;69915;54.862;10.730;2023-05-23T07:01:13;5.32;;;2.70;;
80565;SDS011;69915;54.862;10.730;2023-05-23T07:03:39;5.47;;;3.00;;
80565;SDS011;69915;54.862;10.730;2023-05-23T07:06:07;5.75;;;2.90;;
80565;SDS011;69915;54.862;10.730;2023-05-23T07:08:33;6.75;;;3.05;;
80565;SDS011;69915;54.862;10.730;2023-05-23T07:10:59;6.65;;;2.45;;
80565;SDS011;69915;54.862;10.730;2023-05-23T07:13:24;4.20;;;2.80;;
80565;SDS011;69915;54.862;10.730;2023-05-23T07:15:50;3.95;;;2.53;;
80565;SDS011;69915;54.862;10.730;2023-05-23T07:18:15;5.00;;;2.90;;
80565;SDS011;69915;54.862;10.730;2023-05-23T07:20:41;6.15;;;2.90;;
80565;SDS011;69915;54.862;10.730;2023-05-23T07:23:06;6.00;;;2.45;;
80565;SDS011;69915;54.862;10.730;2023-05-23T07:25:32;7.45;;;2.72;;
80565;SDS011;69915;54.862;10.730;2023-05-23T07:27:57;6.30;;;2.55;;
80565;SDS011;69915;54.862;10.730;2023-05-23T07:30:22;5.18;;;2.67;;
80565;SDS011;69915;54.862;10.730;2023-05-23T07:32:48;4.65;;;2.88;;
80565;SDS011;69915;54.862;10.730;2023-05-23T07:35:14;5.43;;;2.80;;
80565;SDS011;69915;54.862;10.730;2023-05-23T07:37:40;6.10;;;2.90;;
80565;SDS011;69915;54.862;10.730;2023-05-23T07:40:06;5.03;;;2.83;;
80565;SDS011;69915;54.862;10.730;2023-05-23T07:42:33;6.40;;;2.80;;
80565;SDS011;69915;54.862;10.730;2023-05-23T07:44:59;6.82;;;3.42;;
80565;SDS011;69915;54.862;10.730;2023-05-23T07:47:25;5.35;;;3.38;;
80565;SDS011;69915;54.862;10.730;2023-05-23T07:49:54;6.00;;;2.83;;
80565;SDS011;69915;54.862;10.730;2023-05-23T07:52:39;6.78;;;2.97;;
80565;SDS011;69915;54.862;10.730;2023-05-23T07:55:05;8.15;;;3.35;;
80565;SDS011;69915;54.862;10.730;2023-05-23T08:03:11;8.88;;;3.53;;
80565;SDS011;69915;54.862;10.730;2023-05-23T08:05:37;5.93;;;3.15;;
80565;SDS011;69915;54.862;10.730;2023-05-23T08:08:03;6.95;;;3.20;;
80565;SDS011;69915;54.862;10.730;2023-05-23T08:10:28;8.18;;;3.17;;
80565;SDS011;69915;54.862;10.730;2023-05-23T08:12:54;6.43;;;3.30;;
80565;SDS011;69915;54.862;10.730;2023-05-23T08:15:19;8.35;;;3.63;;
80565;SDS011;69915;54.862;10.730;2023-05-23T08:17:47;6.13;;;3.67;;
80565;SDS011;69915;54.862;10.730;2023-05-23T08:20:13;7.97;;;3.72;;
80565;SDS011;69915;54.862;10.730;2023-05-23T08:22:38;8.05;;;3.60;;
80565;SDS011;69915;54.862;10.730;2023-05-23T08:25:04;7.63;;;4.43;;
80565;SDS011;69915;54.862;10.730;2023-05-23T08:27:30;7.53;;;3.75;;
80565;SDS011;69915;54.862;10.730;2023-05-23T08:29:56;6.32;;;4.20;;
80565;SDS011;69915;54.862;10.730;2023-05-23T08:32:22;9.60;;;4.47;;
80565;SDS011;69915;54.862;10.730;2023-05-23T08:34:47;8.35;;;4.25;;
80565;SDS011;69915;54.862;10.730;2023-05-23T08:37:13;8.55;;;4.88;;
80565;SDS011;69915;54.862;10.730;2023-05-23T08:39:38;10.30;;;4.97;;
80565;SDS011;69915;54.862;10.730;2023-05-23T08:42:04;9.27;;;5.07;;
80565;SDS011;69915;54.862;10.730;2023-05-23T08:44:30;7.70;;;4.53;;
80565;SDS011;69915;54.862;10.730;2023-05-23T08:46:55;10.23;;;4.78;;
80565;SDS011;69915;54.862;10.730;2023-05-23T08:49:26;6.47;;;3.95;;
80565;SDS011;69915;54.862;10.730;2023-05-23T08:51:51;7.57;;;4.18;;
80565;SDS011;69915;54.862;10.730;2023-05-23T08:54:25;7.18;;;4.15;;
80565;SDS011;69915;54.862;10.730;2023-05-23T08:56:51;7.30;;;4.25;;
80565;SDS011;69915;54.862;10.730;2023-05-23T08:59:16;6.82;;;4.53;;
80565;SDS011;69915;54.862;10.730;2023-05-23T09:01:43;7.35;;;3.67;;
80565;SDS011;69915;54.862;10.730;2023-05-23T09:04:10;6.10;;;3.35;;
80565;SDS011;69915;54.862;10.730;2023-05-23T09:06:36;6.90;;;2.72;;
80565;SDS011;69915;54.862;10.730;2023-05-23T09:09:01;8.00;;;3.17;;
80565;SDS011;69915;54.862;10.730;2023-05-23T09:11:28;6.15;;;3.20;;
80565;SDS011;69915;54.862;10.730;2023-05-23T09:13:53;5.07;;;2.53;;
80565;SDS011;69915;54.862;10.730;2023-05-23T09:16:20;7.13;;;3.17;;
80565;SDS011;69915;54.862;10.730;2023-05-23T09:18:45;6.28;;;3.35;;
80565;SDS011;69915;54.862;10.730;2023-05-23T09:21:12;9.50;;;3.67;;
80565;SDS011;69915;54.862;10.730;2023-05-23T09:23:39;7.18;;;3.90;;
80565;SDS011;69915;54.862;10.730;2023-05-23T09:26:06;7.18;;;4.00;;
80565;SDS011;69915;54.862;10.730;2023-05-23T09:28:33;6.65;;;3.90;;
80565;SDS011;69915;54.862;10.730;2023-05-23T09:31:00;6.70;;;3.30;;
80565;SDS011;69915;54.862;10.730;2023-05-23T09:36:07;4.22;;;2.05;;
80565;SDS011;69915;54.862;10.730;2023-05-23T09:38:37;4.15;;;1.67;;
80565;SDS011;69915;54.862;10.730;2023-05-23T09:41:03;3.20;;;1.58;;
80565;SDS011;69915;54.862;10.730;2023-05-23T09:43:29;3.60;;;1.55;;
80565;SDS011;69915;54.862;10.730;2023-05-23T09:45:55;2.35;;;1.00;;
80565;SDS011;69915;54.862;10.730;2023-05-23T09:48:28;3.40;;;1.60;;
80565;SDS011;69915;54.862;10.730;2023-05-23T09:50:57;2.63;;;1.30;;
80565;SDS011;69915;54.862;10.730;2023-05-23T09:53:23;3.05;;;1.30;;
80565;SDS011;69915;54.862;10.730;2023-05-23T09:55:52;2.78;;;1.40;;
80565;SDS011;69915;54.862;10.730;2023-05-23T09:58:20;2.80;;;1.20;;
80565;SDS011;69915;54.862;10.730;2023-05-23T10:00:51;3.53;;;1.33;;
80565;SDS011;69915;54.862;10.730;2023-05-23T10:03:28;3.17;;;0.95;;
80565;SDS011;69915;54.862;10.730;2023-05-23T10:05:56;3.30;;;1.17;;
80565;SDS011;69915;54.862;10.730;2023-05-23T10:14:06;3.55;;;1.10;;
80565;SDS011;69915;54.862;10.730;2023-05-23T10:19:52;2.38;;;0.90;;
80565;SDS011;69915;54.862;10.730;2023-05-23T10:21:58;1.85;;;0.95;;
80565;SDS011;69915;54.862;10.730;2023-05-23T10:24:26;4.53;;;1.13;;
80565;SDS011;69915;54.862;10.730;2023-05-23T10:26:53;3.78;;;1.70;;
80565;SDS011;69915;54.862;10.730;2023-05-23T10:29:23;3.22;;;0.80;;
80565;SDS011;69915;54.862;10.730;2023-05-23T10:31:49;1.73;;;0.70;;
80565;SDS011;69915;54.862;10.730;2023-05-23T10:37:20;1.55;;;0.82;;
80565;SDS011;69915;54.862;10.730;2023-05-23T10:45:38;3.15;;;1.00;;
80565;SDS011;69915;54.862;10.730;2023-05-23T10:48:21;2.58;;;1.15;;
80565;SDS011;69915;54.862;10.730;2023-05-23T10:53:36;4.30;;;1.63;;
80565;SDS011;69915;54.862;10.730;2023-05-23T10:56:04;9.32;;;1.55;;
80565;SDS011;69915;54.862;10.730;2023-05-23T10:58:31;7.80;;;1.73;;
80565;SDS011;69915;54.862;10.730;2023-05-23T11:01:12;5.90;;;1.92;;
80565;SDS011;69915;54.862;10.730;2023-05-23T11:09:12;3.67;;;1.30;;
80565;SDS011;69915;54.862;10.730;2023-05-23T11:14:30;8.65;;;2.08;;
80565;SDS011;69915;54.862;10.730;2023-05-23T11:16:56;4.57;;;1.73;;
80565;SDS011;69915;54.862;10.730;2023-05-23T11:19:23;4.18;;;1.40;;
80565;SDS011;69915;54.862;10.730;2023-05-23T11:21:52;4.60;;;1.48;;
80565;SDS011;69915;54.862;10.730;2023-05-23T11:27:29;6.63;;;1.38;;
80565;SDS011;69915;54.862;10.730;2023-05-23T11:32:33;6.13;;;2.08;;
80565;SDS011;69915;54.862;10.730;2023-05-23T11:35:03;5.25;;;1.83;;
80565;SDS011;69915;54.862;10.730;2023-05-23T11:37:31;7.95;;;2.38;;
80565;SDS011;69915;54.862;10.730;2023-05-23T11:39:57;9.70;;;2.10;;
80565;SDS011;69915;54.862;10.730;2023-05-23T11:42:23;6.63;;;1.50;;
80565;SDS011;69915;54.862;10.730;2023-05-23T11:44:49;6.75;;;2.03;;
80565;SDS011;69915;54.862;10.730;2023-05-23T11:47:16;4.20;;;1.40;;
80565;SDS011;69915;54.862;10.730;2023-05-23T11:49:42;7.47;;;1.58;;
80565;SDS011;69915;54.862;10.730;2023-05-23T11:52:10;4.03;;;1.65;;
80565;SDS011;69915;54.862;10.730;2023-05-23T11:54:35;13.35;;;5.88;;
80565;SDS011;69915;54.862;10.730;2023-05-23T11:57:01;10.73;;;1.65;;
80565;SDS011;69915;54.862;10.730;2023-05-23T11:59:27;5.25;;;1.40;;
80565;SDS011;69915;54.862;10.730;2023-05-23T12:01:53;7.32;;;1.40;;
80565;SDS011;69915;54.862;10.730;2023-05-23T12:04:20;5.93;;;1.33;;
80565;SDS011;69915;54.862;10.730;2023-05-23T12:06:46;5.80;;;1.80;;
80565;SDS011;69915;54.862;10.730;2023-05-23T12:09:13;11.70;;;2.38;;
80565;SDS011;69915;54.862;10.730;2023-05-23T12:11:39;6.95;;;1.55;;
80565;SDS011;69915;54.862;10.730;2023-05-23T12:14:12;5.00;;;1.50;;
80565;SDS011;69915;54.862;10.730;2023-05-23T12:16:39;10.65;;;2.38;;
80565;SDS011;69915;54.862;10.730;2023-05-23T12:19:08;6.28;;;1.60;;
80565;SDS011;69915;54.862;10.730;2023-05-23T12:21:41;8.38;;;2.38;;
80565;SDS011;69915;54.862;10.730;2023-05-23T12:24:20;6.22;;;1.90;;
80565;SDS011;69915;54.862;10.730;2023-05-23T12:34:24;5.72;;;1.52;;
80565;SDS011;69915;54.862;10.730;2023-05-23T12:36:53;5.82;;;1.42;;
80565;SDS011;69915;54.862;10.730;2023-05-23T12:39:26;8.40;;;2.53;;
80565;SDS011;69915;54.862;10.730;2023-05-23T12:41:53;6.32;;;1.80;;
80565;SDS011;69915;54.862;10.730;2023-05-23T12:44:22;5.55;;;1.70;;
80565;SDS011;69915;54.862;10.730;2023-05-23T12:46:48;5.18;;;1.73;;
80565;SDS011;69915;54.862;10.730;2023-05-23T12:49:14;7.25;;;1.63;;
80565;SDS011;69915;54.862;10.730;2023-05-23T12:51:40;4.45;;;1.67;;
80565;SDS011;69915;54.862;10.730;2023-05-23T12:54:07;5.35;;;2.00;;
80565;SDS011;69915;54.862;10.730;2023-05-23T12:56:33;7.70;;;1.75;;
80565;SDS011;69915;54.862;10.730;2023-05-23T12:58:58;6.03;;;1.60;;
80565;SDS011;69915;54.862;10.730;2023-05-23T13:01:26;6.40;;;2.10;;
80565;SDS011;69915;54.862;10.730;2023-05-23T13:03:51;6.47;;;1.50;;
80565;SDS011;69915;54.862;10.730;2023-05-23T13:06:17;8.18;;;1.70;;
80565;SDS011;69915;54.862;10.730;2023-05-23T13:08:42;11.57;;;2.20;;
80565;SDS011;69915;54.862;10.730;2023-05-23T13:11:08;11.70;;;2.25;;
80565;SDS011;69915;54.862;10.730;2023-05-23T13:13:33;8.55;;;2.22;;
80565;SDS011;69915;54.862;10.730;2023-05-23T13:15:59;6.70;;;2.00;;
80565;SDS011;69915;54.862;10.730;2023-05-23T13:18:24;8.73;;;2.20;;
80565;SDS011;69915;54.862;10.730;2023-05-23T13:20:50;8.10;;;2.33;;
80565;SDS011;69915;54.862;10.730;2023-05-23T13:23:15;7.40;;;2.45;;
80565;SDS011;69915;54.862;10.730;2023-05-23T13:25:41;9.20;;;1.77;;
80565;SDS011;69915;54.862;10.730;2023-05-23T13:28:06;6.28;;;1.77;;
80565;SDS011;69915;54.862;10.730;2023-05-23T13:30:32;7.25;;;2.08;;
80565;SDS011;69915;54.862;10.730;2023-05-23T13:32:58;5.85;;;1.55;;
80565;SDS011;69915;54.862;10.730;2023-05-23T13:35:23;6.50;;;2.30;;
80565;SDS011;69915;54.862;10.730;2023-05-23T13:37:49;7.28;;;2.15;;
80565;SDS011;69915;54.862;10.730;2023-05-23T13:40:18;5.50;;;1.70;;
80565;SDS011;69915;54.862;10.730;2023-05-23T13:42:46;8.43;;;1.83;;
80565;SDS011;69915;54.862;10.730;2023-05-23T13:45:13;7.38;;;1.50;;
80565;SDS011;69915;54.862;10.730;2023-05-23T13:47:39;8.18;;;2.10;;
80565;SDS011;69915;54.862;10.730;2023-05-23T13:50:05;6.15;;;1.67;;
80565;SDS011;69915;54.862;10.730;2023-05-23T13:52:31;7.20;;;2.03;;
80565;SDS011;69915;54.862;10.730;2023-05-23T13:54:56;9.30;;;2.10;;
80565;SDS011;69915;54.862;10.730;2023-05-23T13:57:23;11.95;;;1.95;;
80565;SDS011;69915;54.862;10.730;2023-05-23T13:59:49;5.18;;;1.52;;
80565;SDS011;69915;54.862;10.730;2023-05-23T14:02:14;9.55;;;1.75;;
80565;SDS011;69915;54.862;10.730;2023-05-23T14:04:40;5.35;;;1.30;;
80565;SDS011;69915;54.862;10.730;2023-05-23T14:07:05;6.82;;;1.73;;
80565;SDS011;69915;54.862;10.730;2023-05-23T14:09:31;9.98;;;1.73;;
80565;SDS011;69915;54.862;10.730;2023-05-23T14:11:56;4.72;;;1.58;;
80565;SDS011;69915;54.862;10.730;2023-05-23T14:14:22;6.25;;;1.67;;
80565;SDS011;69915;54.862;10.730;2023-05-23T14:16:52;9.50;;;1.70;;
80565;SDS011;69915;54.862;10.730;2023-05-23T14:19:17;11.13;;;1.90;;
80565;SDS011;69915;54.862;10.730;2023-05-23T14:21:43;9.43;;;2.25;;
80565;SDS011;69915;54.862;10.730;2023-05-23T14:24:09;7.43;;;2.15;;
80565;SDS011;69915;54.862;10.730;2023-05-23T14:26:34;6.47;;;2.13;;
80565;SDS011;69915;54.862;10.730;2023-05-23T14:29:00;7.45;;;1.90;;
80565;SDS011;69915;54.862;10.730;2023-05-23T14:31:26;7.85;;;1.90;;
80565;SDS011;69915;54.862;10.730;2023-05-23T14:33:52;6.57;;;2.20;;
80565;SDS011;69915;54.862;10.730;2023-05-23T14:36:17;10.18;;;1.55;;
80565;SDS011;69915;54.862;10.730;2023-05-23T14:38:43;8.13;;;2.25;;
80565;SDS011;69915;54.862;10.730;2023-05-23T14:41:10;10.50;;;1.38;;
80565;SDS011;69915;54.862;10.730;2023-05-23T14:43:38;4.93;;;1.50;;
80565;SDS011;69915;54.862;10.730;2023-05-23T14:46:04;4.90;;;1.48;;
80565;SDS011;69915;54.862;10.730;2023-05-23T14:48:30;6.90;;;1.60;;
80565;SDS011;69915;54.862;10.730;2023-05-23T14:50:56;11.90;;;2.22;;
80565;SDS011;69915;54.862;10.730;2023-05-23T14:53:25;7.97;;;2.35;;
80565;SDS011;69915;54.862;10.730;2023-05-23T14:55:51;9.93;;;1.38;;
80565;SDS011;69915;54.862;10.730;2023-05-23T14:58:17;7.65;;;2.33;;
80565;SDS011;69915;54.862;10.730;2023-05-23T15:00:43;6.88;;;1.88;;
80565;SDS011;69915;54.862;10.730;2023-05-23T15:03:11;6.90;;;1.80;;
80565;SDS011;69915;54.862;10.730;2023-05-23T15:05:36;6.65;;;1.25;;
80565;SDS011;69915;54.862;10.730;2023-05-23T15:08:02;6.45;;;1.40;;
80565;SDS011;69915;54.862;10.730;2023-05-23T15:10:28;6.97;;;1.90;;
80565;SDS011;69915;54.862;10.730;2023-05-23T15:12:53;4.63;;;1.70;;
80565;SDS011;69915;54.862;10.730;2023-05-23T15:15:18;5.25;;;1.20;;
80565;SDS011;69915;54.862;10.730;2023-05-23T15:17:47;6.95;;;1.25;;
80565;SDS011;69915;54.862;10.730;2023-05-23T15:20:14;10.35;;;1.35;;
80565;SDS011;69915;54.862;10.730;2023-05-23T15:22:41;11.23;;;1.88;;
80565;SDS011;69915;54.862;10.730;2023-05-23T15:25:06;5.72;;;1.20;;
80565;SDS011;69915;54.862;10.730;2023-05-23T15:27:32;3.80;;;1.40;;
80565;SDS011;69915;54.862;10.730;2023-05-23T15:29:58;6.80;;;2.28;;